Time;durP1;ratioP1;P1;durP2;ratioP2;P2;SDS_P1;SDS_P2;PMS_P1;PMS_P2;Temp;Humidity;BMP_temperature;BMP_pressure;BME280_temperature;BME280_humidity;BME280_pressure;Samples;Min_cycle;Max_cycle;Signal;HPM_P1;HPM_P2
2024/04/21 00:01:47;;;;;;;6.80;3.08;;;18.70;33.90;;;;;;5452665;26;20605;-65
2024/04/21 00:04:21;;;;;;;5.55;2.58;;;18.70;33.90;;;;;;5452403;26;20223;-61
2024/04/21 00:06:46;;;;;;;4.20;2.65;;;18.70;34.60;;;;;;5451676;26;20764;-64
2024/04/21 00:09:15;;;;;;;3.42;2.60;;;18.70;33.90;;;;;;5452546;26;20236;-60
2024/04/21 00:11:41;;;;;;;5.70;3.03;;;18.70;34.00;;;;;;5452196;26;20262;-64
2024/04/21 00:14:10;;;;;;;7.75;3.13;;;18.70;34.00;;;;;;5452530;26;20235;-64
2024/04/21 00:16:36;;;;;;;3.45;2.25;;;18.70;34.00;;;;;;5452427;26;20278;-63
2024/04/21 00:19:05;;;;;;;5.00;2.40;;;18.70;34.00;;;;;;5452137;26;20232;-65
2024/04/21 00:21:34;;;;;;;6.03;3.17;;;18.70;34.00;;;;;;5451622;26;20232;-64
2024/04/21 00:24:02;;;;;;;6.50;2.85;;;18.60;33.90;;;;;;5452260;26;20243;-66
2024/04/21 00:26:28;;;;;;;5.65;2.72;;;18.70;34.00;;;;;;5451952;26;20236;-66
2024/04/21 00:28:57;;;;;;;4.22;2.50;;;18.70;34.00;;;;;;5452046;26;20282;-62
2024/04/21 00:31:23;;;;;;;3.83;2.70;;;18.60;33.90;;;;;;5452086;26;20792;-64
2024/04/21 00:33:51;;;;;;;5.13;2.60;;;18.60;33.90;;;;;;5451770;26;20236;-64
2024/04/21 00:36:17;;;;;;;5.50;2.85;;;18.60;33.90;;;;;;5451183;26;20219;-64
2024/04/21 00:38:49;;;;;;;6.35;2.70;;;18.60;33.90;;;;;;5452028;26;20239;-64
2024/04/21 00:41:15;;;;;;;5.75;2.83;;;18.60;34.00;;;;;;5451632;26;20266;-67
2024/04/21 00:43:43;;;;;;;5.15;2.65;;;18.60;34.00;;;;;;5451990;26;20232;-65
2024/04/21 00:46:09;;;;;;;6.03;2.97;;;18.60;34.00;;;;;;5451838;26;20706;-66
2024/04/21 00:48:39;;;;;;;4.45;2.47;;;18.60;34.00;;;;;;5451476;26;20273;-66
2024/04/21 00:51:06;;;;;;;3.80;2.50;;;18.60;34.00;;;;;;5451158;26;20250;-64
2024/04/21 00:53:35;;;;;;;8.82;3.20;;;18.60;34.00;;;;;;5451819;26;20613;-66
2024/04/21 00:56:06;;;;;;;3.95;2.30;;;18.60;34.00;;;;;;5451361;26;20220;-64
2024/04/21 00:58:35;;;;;;;6.50;2.90;;;18.60;34.00;;;;;;5452387;26;20224;-65
2024/04/21 01:01:02;;;;;;;5.22;2.80;;;18.50;33.90;;;;;;5455320;26;20227;-63
2024/04/21 01:03:31;;;;;;;5.32;2.58;;;18.50;34.00;;;;;;5455050;26;20713;-64
2024/04/21 01:05:57;;;;;;;4.43;2.72;;;18.60;34.00;;;;;;5454455;26;20752;-64
2024/04/21 01:08:25;;;;;;;6.57;2.92;;;18.50;33.90;;;;;;5455301;26;20239;-62
2024/04/21 01:10:51;;;;;;;4.80;2.90;;;18.60;34.70;;;;;;5455326;26;20224;-64
2024/04/21 01:13:22;;;;;;;5.85;2.65;;;18.50;34.00;;;;;;5455315;26;20236;-63
2024/04/21 01:15:52;;;;;;;3.85;2.30;;;18.50;34.70;;;;;;5455368;26;20647;-65
2024/04/21 01:18:21;;;;;;;4.30;2.42;;;18.60;34.10;;;;;;5455219;26;20239;-61
2024/04/21 01:20:47;;;;;;;4.63;2.67;;;18.50;34.00;;;;;;5454947;26;20251;-62
2024/04/21 01:23:19;;;;;;;5.00;3.00;;;18.50;34.00;;;;;;5455077;26;20239;-61
2024/04/21 01:25:45;;;;;;;4.45;2.60;;;18.50;34.00;;;;;;5454676;26;20268;-64
2024/04/21 01:28:14;;;;;;;4.72;2.67;;;18.50;34.00;;;;;;5454801;26;20239;-62
2024/04/21 01:30:40;;;;;;;3.75;2.40;;;18.50;34.00;;;;;;5455141;26;20227;-62
2024/04/21 01:33:08;;;;;;;5.82;2.25;;;18.50;34.00;;;;;;5454641;26;20713;-62
2024/04/21 01:35:35;;;;;;;6.45;2.60;;;18.50;34.00;;;;;;5453946;26;20254;-64
2024/04/21 01:38:03;;;;;;;6.18;2.53;;;18.50;34.00;;;;;;5454749;26;20710;-65
2024/04/21 01:40:33;;;;;;;4.90;2.60;;;18.50;34.00;;;;;;5454520;26;20698;-62
2024/04/21 01:43:01;;;;;;;4.55;2.55;;;18.50;34.00;;;;;;5454793;26;20236;-63
2024/04/21 01:45:27;;;;;;;4.90;2.35;;;18.40;34.00;;;;;;5454860;26;20212;-63
2024/04/21 01:47:56;;;;;;;4.65;2.88;;;18.40;34.00;;;;;;5454222;26;20240;-62
2024/04/21 01:50:23;;;;;;;4.50;2.30;;;18.50;34.00;;;;;;5453914;26;20212;-64
2024/04/21 01:52:52;;;;;;;4.55;2.58;;;18.40;34.00;;;;;;5454505;26;20236;-64
2024/04/21 01:55:18;;;;;;;4.82;2.90;;;18.50;34.10;;;;;;5454328;26;20593;-63
2024/04/21 01:57:49;;;;;;;3.80;2.55;;;18.40;34.00;;;;;;5454408;26;20236;-61
2024/04/21 02:00:15;;;;;;;5.28;2.60;;;18.40;34.70;;;;;;5454342;26;20254;-64
2024/04/21 02:02:43;;;;;;;4.00;2.55;;;18.40;34.00;;;;;;5454396;26;20295;-63
2024/04/21 02:05:09;;;;;;;4.03;2.42;;;18.40;34.00;;;;;;5453730;26;20212;-62
2024/04/21 02:07:38;;;;;;;6.63;2.65;;;18.40;34.60;;;;;;5454190;26;20295;-63
2024/04/21 02:10:04;;;;;;;4.80;2.63;;;18.40;34.00;;;;;;5452725;26;20236;-66
2024/04/21 02:12:33;;;;;;;5.03;2.55;;;18.40;34.00;;;;;;5454187;26;20360;-63
2024/04/21 02:15:01;;;;;;;4.93;2.58;;;18.40;34.00;;;;;;5454387;26;20212;-64
2024/04/21 02:17:30;;;;;;;6.68;2.85;;;18.30;33.90;;;;;;5454060;26;20240;-62
2024/04/21 02:19:56;;;;;;;6.30;2.65;;;18.40;34.00;;;;;;5453425;26;20284;-62
2024/04/21 02:22:24;;;;;;;4.80;2.50;;;18.40;34.00;;;;;;5454153;26;20832;-63
2024/04/21 02:24:50;;;;;;;4.05;2.30;;;18.40;34.00;;;;;;5453894;26;20216;-65
2024/04/21 02:27:19;;;;;;;6.32;2.70;;;18.40;34.70;;;;;;5453943;26;20262;-61
2024/04/21 02:29:45;;;;;;;3.47;2.72;;;18.40;34.00;;;;;;5454057;26;20243;-61
2024/04/21 02:32:16;;;;;;;5.32;2.70;;;18.40;34.00;;;;;;5453691;26;20737;-63
2024/04/21 02:34:42;;;;;;;6.45;2.45;;;18.30;34.00;;;;;;5453143;26;20258;-62
2024/04/21 02:37:11;;;;;;;5.47;2.75;;;18.40;34.10;;;;;;5453735;26;20694;-64
2024/04/21 02:39:37;;;;;;;4.43;2.47;;;18.30;34.00;;;;;;5453585;26;20790;-62
2024/04/21 02:42:06;;;;;;;3.63;2.50;;;18.30;34.00;;;;;;5453788;26;20243;-62
2024/04/21 02:44:32;;;;;;;5.15;2.70;;;18.30;34.00;;;;;;5453931;26;20212;-63
2024/04/21 02:47:01;;;;;;;7.80;2.75;;;18.30;34.00;;;;;;5453457;26;20819;-63
2024/04/21 02:49:29;;;;;;;6.55;2.50;;;18.30;34.00;;;;;;5453620;26;20215;-62
2024/04/21 02:51:58;;;;;;;3.95;2.58;;;18.30;34.00;;;;;;5453692;26;20815;-62
2024/04/21 02:54:26;;;;;;;3.97;2.70;;;18.30;34.00;;;;;;5453483;26;20262;-62
2024/04/21 02:56:54;;;;;;;5.78;2.92;;;18.30;34.00;;;;;;5453607;26;20282;-62
2024/04/21 02:59:20;;;;;;;4.53;2.58;;;18.30;34.00;;;;;;5453304;26;20702;-67
2024/04/21 03:01:49;;;;;;;4.53;2.63;;;18.30;34.70;;;;;;5453338;26;20277;-62
2024/04/21 03:04:16;;;;;;;3.25;2.60;;;18.30;34.00;;;;;;5453393;26;20216;-62
2024/04/21 03:06:48;;;;;;;5.95;3.08;;;18.30;34.00;;;;;;5452806;26;20343;-63
2024/04/21 03:09:13;;;;;;;5.13;2.60;;;18.30;34.00;;;;;;5453262;26;20324;-62
2024/04/21 03:11:42;;;;;;;7.00;3.13;;;18.30;34.00;;;;;;5453322;26;20251;-62
2024/04/21 03:14:08;;;;;;;3.90;2.50;;;18.30;34.00;;;;;;5453467;26;20560;-63
2024/04/21 03:16:36;;;;;;;4.78;2.50;;;18.30;34.00;;;;;;5453014;26;20282;-62
2024/04/21 03:19:02;;;;;;;3.45;2.47;;;18.20;34.00;;;;;;5453280;26;20232;-65
2024/04/21 03:21:31;;;;;;;4.78;2.65;;;18.30;34.00;;;;;;5452028;26;20224;-62
2024/04/21 03:23:59;;;;;;;4.45;2.35;;;18.30;34.70;;;;;;5452953;26;20216;-62
2024/04/21 03:26:28;;;;;;;3.45;2.33;;;18.20;34.60;;;;;;5453116;26;20341;-62
2024/04/21 03:28:54;;;;;;;4.13;2.30;;;18.20;34.00;;;;;;5453209;26;20243;-64
2024/04/21 03:31:22;;;;;;;4.78;2.30;;;18.20;34.00;;;;;;5452859;26;20271;-63
2024/04/21 03:33:48;;;;;;;3.80;2.40;;;18.20;34.00;;;;;;5453141;26;20714;-62
2024/04/21 03:36:16;;;;;;;4.78;3.22;;;18.20;34.00;;;;;;5452209;26;20264;-62
2024/04/21 03:38:45;;;;;;;4.68;2.60;;;18.20;34.60;;;;;;5452775;26;20227;-65
2024/04/21 03:41:19;;;;;;;6.10;2.58;;;18.20;34.00;;;;;;5453038;26;20216;-67
2024/04/21 03:43:48;;;;;;;5.20;2.50;;;18.20;34.00;;;;;;5453021;26;20266;-63
2024/04/21 03:46:16;;;;;;;4.78;2.38;;;18.20;34.00;;;;;;5452659;26;20311;-62
2024/04/21 03:48:42;;;;;;;4.32;2.50;;;18.20;34.00;;;;;;5452794;26;20562;-64
2024/04/21 03:51:11;;;;;;;4.90;2.40;;;18.20;34.00;;;;;;5452317;26;20278;-66
2024/04/21 03:53:37;;;;;;;3.35;2.33;;;18.20;34.00;;;;;;5452786;26;20278;-66
2024/04/21 03:56:06;;;;;;;4.18;2.53;;;18.20;34.00;;;;;;5452576;26;20569;-63
2024/04/21 03:58:35;;;;;;;4.47;2.60;;;18.20;34.00;;;;;;5452658;26;20274;-64
2024/04/21 04:01:03;;;;;;;4.38;2.30;;;18.20;34.00;;;;;;5452403;26;20228;-65
2024/04/21 04:03:29;;;;;;;4.53;2.60;;;18.20;34.00;;;;;;5452661;26;20262;-63
2024/04/21 04:05:58;;;;;;;4.93;2.53;;;18.20;34.00;;;;;;5452047;26;20224;-61
2024/04/21 04:08:24;;;;;;;4.82;2.83;;;18.20;34.00;;;;;;5452395;26;20648;-62
2024/04/21 04:10:53;;;;;;;4.32;2.58;;;18.20;34.70;;;;;;5452601;26;20484;-61
2024/04/21 04:13:18;;;;;;;6.13;2.42;;;18.10;34.00;;;;;;5452666;26;20228;-63
2024/04/21 04:15:50;;;;;;;3.35;2.03;;;18.20;34.00;;;;;;5452239;26;20323;-62
2024/04/21 04:18:15;;;;;;;3.58;2.40;;;18.10;34.00;;;;;;5452468;26;20244;-62
2024/04/21 04:20:44;;;;;;;5.15;2.42;;;18.20;34.00;;;;;;5451555;26;20262;-62
2024/04/21 04:23:10;;;;;;;3.17;2.25;;;18.10;34.00;;;;;;5452315;26;20231;-67
2024/04/21 04:25:39;;;;;;;3.53;2.15;;;18.20;34.10;;;;;;5452438;26;20228;-63
2024/04/21 04:28:05;;;;;;;5.30;2.28;;;18.10;34.00;;;;;;5452261;26;20239;-63
2024/04/21 04:30:34;;;;;;;4.65;2.30;;;18.10;34.00;;;;;;5452175;26;20368;-62
2024/04/21 04:33:02;;;;;;;4.88;2.53;;;18.10;34.00;;;;;;5451222;26;20232;-65
2024/04/21 04:35:31;;;;;;;4.70;2.30;;;18.10;34.60;;;;;;5451089;26;20690;-67
2024/04/21 04:37:57;;;;;;;3.50;2.30;;;18.10;34.00;;;;;;5451743;26;20228;-65
2024/04/21 04:40:25;;;;;;;5.80;2.45;;;18.10;34.70;;;;;;5452108;26;20254;-65
2024/04/21 04:42:51;;;;;;;4.03;2.47;;;18.10;34.00;;;;;;5451906;26;20231;-65
2024/04/21 04:45:20;;;;;;;4.35;2.45;;;18.10;34.00;;;;;;5451642;26;20266;-67
2024/04/21 04:47:46;;;;;;;2.95;1.92;;;18.10;34.00;;;;;;5451731;26;20232;-64
2024/04/21 04:50:18;;;;;;;3.17;2.17;;;18.10;34.70;;;;;;5451507;26;20254;-66
2024/04/21 04:52:43;;;;;;;4.80;2.28;;;18.10;34.00;;;;;;5451576;26;20228;-64
2024/04/21 04:55:12;;;;;;;3.60;2.25;;;18.10;34.00;;;;;;5451670;26;20265;-63
2024/04/21 04:57:38;;;;;;;2.70;1.98;;;18.10;34.00;;;;;;5451439;26;20278;-62
2024/04/21 05:00:08;;;;;;;4.05;2.30;;;18.10;34.00;;;;;;5451246;26;20733;-64
2024/04/21 05:02:34;;;;;;;2.83;2.28;;;18.10;34.10;;;;;;5451401;26;20299;-60
2024/04/21 05:05:02;;;;;;;3.80;2.08;;;18.10;34.10;;;;;;5450944;26;20219;-62
2024/04/21 05:07:31;;;;;;;4.72;2.47;;;18.10;34.80;;;;;;5451305;26;20635;-62
2024/04/21 05:09:59;;;;;;;2.85;2.25;;;18.10;34.10;;;;;;5451460;26;20270;-63
2024/04/21 05:12:25;;;;;;;3.50;2.03;;;18.10;34.10;;;;;;5451372;26;20570;-62
2024/04/21 05:14:54;;;;;;;4.55;2.50;;;18.10;34.20;;;;;;5451091;26;20262;-62
2024/04/21 05:17:20;;;;;;;2.97;2.10;;;18.00;34.10;;;;;;5451222;26;20717;-64
2024/04/21 05:19:48;;;;;;;3.95;2.30;;;18.10;34.20;;;;;;5450213;26;20270;-61
2024/04/21 05:22:14;;;;;;;4.85;2.30;;;18.00;34.10;;;;;;5450767;26;20616;-67
2024/04/21 05:24:45;;;;;;;5.50;2.30;;;18.00;34.10;;;;;;5451111;26;20705;-63
2024/04/21 05:27:13;;;;;;;4.28;2.42;;;18.10;34.20;;;;;;5451024;26;20228;-65
2024/04/21 05:29:42;;;;;;;3.17;2.20;;;18.00;34.10;;;;;;5450964;26;20240;-69
2024/04/21 05:32:07;;;;;;;5.25;2.63;;;18.00;34.10;;;;;;5451051;26;20239;-65
2024/04/21 05:34:36;;;;;;;3.95;2.20;;;18.00;34.20;;;;;;5450214;26;20274;-66
2024/04/21 05:37:02;;;;;;;4.53;2.58;;;18.00;34.20;;;;;;5450720;26;20232;-62
2024/04/21 05:39:31;;;;;;;5.88;2.20;;;18.00;34.20;;;;;;5450820;26;20232;-63
2024/04/21 05:41:59;;;;;;;3.40;2.13;;;18.10;34.30;;;;;;5450788;26;20274;-66
2024/04/21 05:44:28;;;;;;;4.43;2.60;;;18.00;34.20;;;;;;5451008;26;20267;-67
2024/04/21 05:46:54;;;;;;;4.20;2.35;;;18.00;34.30;;;;;;5454589;26;20574;-67
2024/04/21 05:49:22;;;;;;;3.03;2.20;;;18.00;34.30;;;;;;5453788;26;20698;-63
2024/04/21 05:51:48;;;;;;;4.15;2.33;;;18.00;34.90;;;;;;5454164;26;20325;-64
2024/04/21 05:54:17;;;;;;;3.55;2.30;;;18.00;34.30;;;;;;5454418;26;20231;-62
2024/04/21 05:56:43;;;;;;;3.22;2.10;;;18.00;34.30;;;;;;5454253;26;20216;-63
2024/04/21 05:59:14;;;;;;;4.10;2.30;;;18.00;34.30;;;;;;5454042;26;20699;-65
2024/04/21 06:01:40;;;;;;;2.78;2.10;;;18.00;34.40;;;;;;5454720;26;20609;-63
2024/04/21 06:04:09;;;;;;;3.72;1.83;;;18.00;34.40;;;;;;5453934;26;20279;-64
2024/04/21 06:06:34;;;;;;;4.22;2.22;;;18.00;34.40;;;;;;5454254;26;20227;-64
2024/04/21 06:09:03;;;;;;;4.13;1.98;;;18.00;35.10;;;;;;5454593;26;20255;-62
2024/04/21 06:11:29;;;;;;;4.03;1.98;;;18.00;34.50;;;;;;5454124;26;20259;-63
2024/04/21 06:13:57;;;;;;;5.97;2.28;;;18.00;34.50;;;;;;5453945;26;20227;-64
2024/04/21 06:16:26;;;;;;;3.47;2.30;;;18.00;34.50;;;;;;5454096;26;20283;-63
2024/04/21 06:18:54;;;;;;;4.50;2.30;;;18.00;34.60;;;;;;5453339;26;20232;-64
2024/04/21 06:21:20;;;;;;;2.63;1.90;;;18.00;34.60;;;;;;5453801;26;20216;-64
2024/04/21 06:23:49;;;;;;;6.78;2.08;;;18.00;34.60;;;;;;5454016;26;20235;-63
2024/04/21 06:26:14;;;;;;;4.38;2.13;;;18.00;34.70;;;;;;5454041;26;20220;-64
2024/04/21 06:28:43;;;;;;;3.88;2.15;;;18.00;34.70;;;;;;5453717;26;20578;-64
2024/04/21 06:31:09;;;;;;;3.58;2.10;;;18.00;34.70;;;;;;5453835;26;20227;-65
2024/04/21 06:33:40;;;;;;;1.98;1.30;;;18.00;34.70;;;;;;5452892;26;20383;-63
2024/04/21 06:36:06;;;;;;;2.70;1.98;;;18.00;34.80;;;;;;5453471;26;20357;-63
2024/04/21 06:38:35;;;;;;;4.05;1.92;;;18.00;34.80;;;;;;5453321;26;20283;-63
2024/04/21 06:41:01;;;;;;;4.63;1.95;;;18.00;34.80;;;;;;5453709;26;20227;-63
2024/04/21 06:43:29;;;;;;;5.88;2.22;;;18.00;34.80;;;;;;5453270;26;20290;-63
2024/04/21 06:45:55;;;;;;;2.88;1.90;;;18.00;35.40;;;;;;5454045;26;20676;-63
2024/04/21 06:48:24;;;;;;;3.75;2.20;;;18.00;34.80;;;;;;5452772;26;20236;-64
2024/04/21 06:50:52;;;;;;;2.95;1.80;;;18.00;35.40;;;;;;5453350;26;20323;-63
2024/04/21 06:53:22;;;;;;;2.50;1.90;;;18.00;34.80;;;;;;5453502;26;20346;-62
2024/04/21 06:55:48;;;;;;;3.40;1.70;;;18.00;34.80;;;;;;5453151;26;20266;-65
2024/04/21 06:58:18;;;;;;;3.67;1.70;;;18.00;34.80;;;;;;5452602;26;20240;-63
2024/04/21 07:00:44;;;;;;;3.53;1.42;;;18.00;34.80;;;;;;5453104;26;20270;-62
2024/04/21 07:03:13;;;;;;;3.45;2.13;;;18.10;34.80;;;;;;5452638;26;20248;-63
2024/04/21 07:05:39;;;;;;;3.40;1.80;;;18.00;34.80;;;;;;5453217;26;20215;-61
2024/04/21 07:08:11;;;;;;;6.00;1.90;;;18.00;34.80;;;;;;5453368;26;20628;-63
2024/04/21 07:10:37;;;;;;;3.38;1.80;;;18.00;34.80;;;;;;5453309;26;20254;-63
2024/04/21 07:13:05;;;;;;;4.07;2.03;;;18.00;34.80;;;;;;5452968;26;20236;-66
2024/04/21 07:15:31;;;;;;;2.75;1.88;;;18.00;34.80;;;;;;5453052;26;20227;-62
2024/04/21 07:18:00;;;;;;;4.13;1.80;;;18.00;34.90;;;;;;5452419;26;20290;-63
2024/04/21 07:20:25;;;;;;;4.07;1.90;;;18.00;35.00;;;;;;5452922;26;20263;-63
2024/04/21 07:22:54;;;;;;;3.63;1.90;;;18.00;35.00;;;;;;5453094;26;20235;-66
2024/04/21 07:25:23;;;;;;;2.58;1.50;;;18.00;35.70;;;;;;5453122;26;20752;-64
2024/04/21 07:27:51;;;;;;;3.90;1.75;;;18.00;35.10;;;;;;5452752;26;20717;-62
2024/04/21 07:30:17;;;;;;;2.88;1.52;;;18.00;35.10;;;;;;5453190;26;20267;-62
2024/04/21 07:32:46;;;;;;;5.72;1.70;;;18.00;35.10;;;;;;5452074;26;20244;-63
2024/04/21 07:35:11;;;;;;;4.65;2.00;;;18.00;35.20;;;;;;5452679;26;20698;-61
2024/04/21 07:37:40;;;;;;;2.90;1.75;;;18.10;35.30;;;;;;5453033;26;20274;-65
2024/04/21 07:40:13;;;;;;;3.90;2.17;;;18.00;35.30;;;;;;5452954;26;20266;-64
2024/04/21 07:42:42;;;;;;;3.63;2.00;;;18.10;35.40;;;;;;5452586;26;20679;-64
2024/04/21 07:45:10;;;;;;;4.55;1.90;;;18.00;35.30;;;;;;5452865;26;20219;-65
2024/04/21 07:47:37;;;;;;;3.50;1.88;;;18.00;36.00;;;;;;5451672;26;20232;-62
2024/04/21 07:50:07;;;;;;;4.68;1.88;;;18.00;35.40;;;;;;5452595;26;20646;-61
2024/04/21 07:52:33;;;;;;;5.18;1.75;;;18.00;35.40;;;;;;5452805;26;20240;-62
2024/04/21 07:55:01;;;;;;;3.13;1.85;;;18.00;35.40;;;;;;5452665;26;20279;-63
2024/04/21 07:57:27;;;;;;;3.63;1.83;;;18.00;35.50;;;;;;5452455;26;20239;-62
2024/04/21 07:59:58;;;;;;;5.32;2.20;;;18.00;35.50;;;;;;5452613;26;20275;-62
2024/04/21 08:02:24;;;;;;;4.22;1.70;;;18.00;35.40;;;;;;5451838;26;20235;-62
2024/04/21 08:04:53;;;;;;;3.42;1.63;;;18.00;36.20;;;;;;5452232;26;20228;-63
2024/04/21 08:07:18;;;;;;;4.95;2.40;;;18.00;35.50;;;;;;5452112;26;20741;-63
2024/04/21 08:09:47;;;;;;;4.38;1.60;;;18.00;35.60;;;;;;5451086;26;20270;-64
2024/04/21 08:12:13;;;;;;;3.97;1.70;;;18.10;36.30;;;;;;5452051;26;20280;-63
2024/04/21 08:14:41;;;;;;;3.80;1.77;;;18.10;35.70;;;;;;5452453;26;20220;-62
2024/04/21 08:17:10;;;;;;;4.22;1.70;;;18.10;35.70;;;;;;5452229;26;20228;-65
2024/04/21 08:19:38;;;;;;;4.85;2.15;;;18.00;35.70;;;;;;5451284;26;20228;-64
2024/04/21 08:22:04;;;;;;;5.00;1.83;;;18.00;35.70;;;;;;5452210;26;20247;-62
2024/04/21 08:24:33;;;;;;;3.70;1.50;;;18.00;35.70;;;;;;5452379;26;20251;-66
2024/04/21 08:26:59;;;;;;;3.63;1.80;;;18.00;35.70;;;;;;5452257;26;20235;-62
2024/04/21 08:29:28;;;;;;;6.47;2.15;;;18.10;35.80;;;;;;5452144;26;20604;-64
2024/04/21 08:31:53;;;;;;;3.20;1.75;;;18.00;35.80;;;;;;5451818;26;20220;-64
2024/04/21 08:34:25;;;;;;;3.80;1.75;;;18.00;35.70;;;;;;5451032;26;20735;-62
2024/04/21 08:36:50;;;;;;;2.65;1.60;;;18.00;36.40;;;;;;5451928;26;20228;-63
2024/04/21 08:39:19;;;;;;;6.78;2.30;;;18.00;35.70;;;;;;5452033;26;20262;-66
2024/04/21 08:41:46;;;;;;;3.67;1.70;;;18.00;35.80;;;;;;5451662;26;20232;-62
2024/04/21 08:44:17;;;;;;;4.50;1.83;;;18.00;36.40;;;;;;5452072;26;20266;-63
2024/04/21 08:46:43;;;;;;;3.13;1.60;;;18.00;35.80;;;;;;5451889;26;20266;-67
2024/04/21 08:49:12;;;;;;;4.85;1.73;;;18.00;35.80;;;;;;5451031;26;20624;-63
2024/04/21 08:51:41;;;;;;;3.60;1.65;;;18.10;35.90;;;;;;5451859;26;20254;-63
2024/04/21 08:54:09;;;;;;;3.10;1.65;;;18.10;35.90;;;;;;5451748;26;20235;-62
2024/04/21 08:56:36;;;;;;;2.33;1.50;;;18.00;36.50;;;;;;5451426;26;20212;-65
2024/04/21 08:59:05;;;;;;;2.47;1.63;;;18.00;35.90;;;;;;5451611;26;20768;-63
2024/04/21 09:01:31;;;;;;;3.22;1.48;;;18.00;35.90;;;;;;5451829;26;20349;-62
2024/04/21 09:04:00;;;;;;;2.60;1.50;;;18.00;35.90;;;;;;5450559;26;20240;-66
2024/04/21 09:06:27;;;;;;;3.72;1.48;;;18.10;36.00;;;;;;5451703;26;20559;-65
2024/04/21 09:08:58;;;;;;;2.40;1.73;;;18.00;35.90;;;;;;5451431;26;20235;-61
2024/04/21 09:11:26;;;;;;;3.55;1.73;;;18.10;36.00;;;;;;5451051;26;20301;-65
2024/04/21 09:13:56;;;;;;;5.13;1.85;;;18.00;35.90;;;;;;5451389;26;20278;-63
2024/04/21 09:16:23;;;;;;;4.97;1.75;;;18.00;35.90;;;;;;5451348;26;20249;-65
2024/04/21 09:18:52;;;;;;;4.50;1.80;;;18.00;35.90;;;;;;5450404;26;20235;-64
2024/04/21 09:21:18;;;;;;;4.15;1.83;;;18.00;36.60;;;;;;5454490;26;20220;-62
2024/04/21 09:23:47;;;;;;;3.83;1.63;;;18.00;35.90;;;;;;5454809;26;20294;-62
2024/04/21 09:26:15;;;;;;;3.75;2.03;;;18.00;35.90;;;;;;5454615;26;20259;-63
2024/04/21 09:28:44;;;;;;;3.42;1.55;;;18.10;36.70;;;;;;5454709;26;20248;-64
2024/04/21 09:31:10;;;;;;;3.15;2.00;;;18.00;35.90;;;;;;5454788;26;20211;-64
2024/04/21 09:33:38;;;;;;;3.90;1.70;;;18.00;35.90;;;;;;5453559;26;20273;-63
2024/04/21 09:36:05;;;;;;;4.20;1.88;;;18.00;35.90;;;;;;5454746;26;20257;-63
2024/04/21 09:38:34;;;;;;;3.08;1.70;;;18.00;35.90;;;;;;5454740;26;20294;-62
2024/04/21 09:41:00;;;;;;;4.25;1.90;;;18.00;35.90;;;;;;5454275;26;20219;-63
2024/04/21 09:43:33;;;;;;;4.07;1.65;;;18.00;35.90;;;;;;5454516;26;20710;-63
2024/04/21 09:46:00;;;;;;;5.13;1.90;;;18.00;35.90;;;;;;5454523;26;20219;-63
2024/04/21 09:48:30;;;;;;;4.13;1.88;;;18.10;36.00;;;;;;5453330;26;20729;-63
2024/04/21 09:50:57;;;;;;;4.30;1.77;;;18.00;35.90;;;;;;5454419;26;20759;-63
2024/04/21 09:53:25;;;;;;;5.72;1.75;;;18.00;35.90;;;;;;5454307;26;20615;-63
2024/04/21 09:55:56;;;;;;;3.30;1.70;;;18.00;35.90;;;;;;5454142;26;20220;-63
2024/04/21 09:58:26;;;;;;;4.18;1.85;;;18.00;35.90;;;;;;5454268;26;20243;-63
2024/04/21 10:01:00;;;;;;;5.40;1.73;;;18.00;35.90;;;;;;5454376;26;20220;-64
2024/04/21 10:03:29;;;;;;;3.08;1.73;;;18.10;36.00;;;;;;5453201;26;20343;-64
2024/04/21 10:05:56;;;;;;;6.25;1.58;;;18.00;35.90;;;;;;5454396;26;20266;-63
2024/04/21 10:08:26;;;;;;;6.50;2.13;;;18.00;35.90;;;;;;5454336;26;20251;-65
2024/04/21 10:10:52;;;;;;;4.95;1.88;;;18.00;35.80;;;;;;5453992;26;20259;-63
2024/04/21 10:13:22;;;;;;;6.05;1.90;;;18.00;36.40;;;;;;5454051;26;20291;-64
2024/04/21 10:15:49;;;;;;;4.10;1.77;;;18.00;36.50;;;;;;5454137;26;20807;-62
2024/04/21 10:18:23;;;;;;;4.65;1.80;;;18.00;35.80;;;;;;5452988;26;20355;-63
2024/04/21 10:20:49;;;;;;;6.78;2.08;;;18.00;35.80;;;;;;5453941;26;20226;-64
2024/04/21 10:23:18;;;;;;;3.95;1.58;;;18.00;35.70;;;;;;5453890;26;20573;-63
2024/04/21 10:25:46;;;;;;;3.28;1.80;;;18.00;35.70;;;;;;5453787;26;20258;-64
2024/04/21 10:28:16;;;;;;;3.35;1.60;;;18.00;36.40;;;;;;5453887;26;20243;-64
2024/04/21 10:30:42;;;;;;;4.28;1.80;;;18.00;35.70;;;;;;5453671;26;20228;-64
2024/04/21 10:33:15;;;;;;;4.88;1.50;;;18.00;35.60;;;;;;5452138;26;20239;-65
2024/04/21 10:35:43;;;;;;;4.65;1.73;;;18.00;35.60;;;;;;5453939;26;20254;-67
2024/04/21 10:38:14;;;;;;;3.25;1.60;;;18.00;36.30;;;;;;5453972;26;20251;-62
2024/04/21 10:40:44;;;;;;;5.15;1.88;;;18.00;36.30;;;;;;5453608;26;20308;-63
2024/04/21 10:43:13;;;;;;;5.88;1.70;;;18.00;35.60;;;;;;5453878;26;20236;-63
2024/04/21 10:45:39;;;;;;;4.05;1.77;;;18.00;35.60;;;;;;5453948;26;20606;-65
2024/04/21 10:48:09;;;;;;;5.20;1.92;;;17.90;35.50;;;;;;5452832;26;20239;-63
2024/04/21 10:50:36;;;;;;;4.55;1.60;;;18.00;35.60;;;;;;5453956;26;20258;-64
2024/04/21 10:53:09;;;;;;;4.70;1.70;;;17.90;35.50;;;;;;5453883;26;20251;-63
2024/04/21 10:55:35;;;;;;;3.03;1.40;;;18.00;35.60;;;;;;5453632;26;20215;-64
2024/04/21 10:58:06;;;;;;;4.00;1.55;;;18.00;35.60;;;;;;5453771;26;20770;-62
2024/04/21 11:00:36;;;;;;;3.15;1.55;;;17.90;35.50;;;;;;5453742;26;20227;-62
2024/04/21 11:03:05;;;;;;;3.53;1.80;;;17.90;35.40;;;;;;5452534;26;20725;-63
2024/04/21 11:05:39;;;;;;;3.20;1.52;;;17.90;35.40;;;;;;5453590;26;20224;-63
2024/04/21 11:08:11;;;;;;;5.10;1.40;;;17.90;35.40;;;;;;5453489;26;20240;-63
2024/04/21 11:10:37;;;;;;;3.35;1.58;;;17.90;35.40;;;;;;5453504;26;20324;-64
2024/04/21 11:13:08;;;;;;;4.63;1.70;;;18.00;35.40;;;;;;5453358;26;20620;-63
2024/04/21 11:15:39;;;;;;;3.85;1.50;;;17.90;35.30;;;;;;5453434;26;20223;-63
2024/04/21 11:18:08;;;;;;;4.18;1.50;;;17.90;35.30;;;;;;5452459;26;20286;-65
2024/04/21 11:20:34;;;;;;;2.70;1.60;;;17.90;35.20;;;;;;5453407;26;20223;-62
2024/04/21 11:23:02;;;;;;;3.55;1.48;;;18.00;35.30;;;;;;5453370;26;20595;-62
2024/04/21 11:25:31;;;;;;;3.85;1.60;;;17.90;35.20;;;;;;5453188;26;20254;-65
2024/04/21 11:27:59;;;;;;;3.33;1.65;;;17.90;35.90;;;;;;5453190;26;20240;-63
2024/04/21 11:30:26;;;;;;;4.53;1.48;;;17.90;35.80;;;;;;5453334;26;20275;-64
2024/04/21 11:32:55;;;;;;;2.50;1.40;;;17.90;35.20;;;;;;5452324;26;20236;-63
2024/04/21 11:35:21;;;;;;;4.53;1.60;;;17.90;35.10;;;;;;5453229;26;20216;-63
2024/04/21 11:37:51;;;;;;;2.95;1.50;;;17.90;35.00;;;;;;5452940;26;20274;-63
2024/04/21 11:40:17;;;;;;;3.08;1.48;;;17.90;34.80;;;;;;5453032;26;20254;-62
2024/04/21 11:42:48;;;;;;;3.72;1.60;;;17.90;34.90;;;;;;5452622;26;20655;-62
2024/04/21 11:45:24;;;;;;;4.68;1.75;;;17.90;35.50;;;;;;5452925;26;20223;-62
2024/04/21 11:47:56;;;;;;;6.13;2.03;;;17.90;34.80;;;;;;5452203;26;20281;-63
2024/04/21 11:50:22;;;;;;;2.75;1.33;;;17.90;34.80;;;;;;5453045;26;20254;-62
2024/04/21 11:52:51;;;;;;;4.00;1.42;;;17.90;35.40;;;;;;5452340;26;20286;-61
2024/04/21 11:55:17;;;;;;;3.60;1.30;;;17.90;34.80;;;;;;5452916;26;20706;-65
2024/04/21 11:57:48;;;;;;;3.85;1.48;;;17.90;34.80;;;;;;5452743;26;20778;-63
2024/04/21 12:00:15;;;;;;;5.38;1.67;;;17.90;34.80;;;;;;5452714;26;20556;-62
2024/04/21 12:02:43;;;;;;;4.15;1.60;;;17.90;34.80;;;;;;5452264;26;20340;-64
2024/04/21 12:05:09;;;;;;;3.97;1.40;;;17.90;34.80;;;;;;5453123;26;20220;-63
2024/04/21 12:07:37;;;;;;;4.45;1.40;;;17.90;34.80;;;;;;5452556;26;20782;-64
2024/04/21 12:10:04;;;;;;;3.15;1.58;;;17.90;34.80;;;;;;5452711;26;20262;-64
2024/04/21 12:12:32;;;;;;;3.40;1.30;;;17.90;34.70;;;;;;5452835;26;20232;-62
2024/04/21 12:15:02;;;;;;;2.97;1.30;;;17.90;35.40;;;;;;5452273;26;20231;-64
2024/04/21 12:17:30;;;;;;;3.28;1.50;;;17.90;34.70;;;;;;5451689;26;20236;-63
2024/04/21 12:19:56;;;;;;;4.18;1.60;;;17.90;34.70;;;;;;5452545;26;20227;-62
2024/04/21 12:22:25;;;;;;;3.75;1.48;;;17.90;34.70;;;;;;5452040;26;20274;-64
2024/04/21 12:24:51;;;;;;;5.03;1.80;;;17.90;34.70;;;;;;5452201;26;20258;-63
2024/04/21 12:27:19;;;;;;;4.57;1.45;;;17.90;34.70;;;;;;5452170;26;20227;-62
2024/04/21 12:29:45;;;;;;;6.82;1.65;;;17.80;34.60;;;;;;5451971;26;20283;-65
2024/04/21 12:32:16;;;;;;;3.33;1.42;;;17.90;34.70;;;;;;5451429;26;20266;-62
2024/04/21 12:34:42;;;;;;;3.90;1.65;;;17.90;34.70;;;;;;5452249;26;20212;-63
2024/04/21 12:37:11;;;;;;;1.92;1.13;;;17.90;34.70;;;;;;5451965;26;20260;-62
2024/04/21 12:39:37;;;;;;;4.18;1.70;;;17.90;34.70;;;;;;5452069;26;20270;-63
2024/04/21 12:42:05;;;;;;;4.60;1.17;;;17.90;34.70;;;;;;5452005;26;20631;-62
2024/04/21 12:44:31;;;;;;;5.32;1.55;;;17.90;34.70;;;;;;5451803;26;20326;-62
2024/04/21 12:47:00;;;;;;;4.10;1.30;;;17.90;34.70;;;;;;5451320;26;20661;-65
2024/04/21 12:49:28;;;;;;;2.97;1.23;;;17.90;34.70;;;;;;5451682;26;20251;-63
2024/04/21 12:51:57;;;;;;;3.47;1.60;;;17.90;34.70;;;;;;5451725;26;20804;-63